createdAt,value
2023-04-26T00:01:08.925Z,99968.04
2023-04-26T00:03:36.346Z,99963.98
2023-04-26T00:06:08.245Z,99964.52
2023-04-26T00:08:36.058Z,99970.35
2023-04-26T00:11:03.075Z,99969.14
2023-04-26T00:13:30.409Z,99973.23
2023-04-26T00:15:57.580Z,99979.29
2023-04-26T00:18:25.114Z,99979.67
2023-04-26T00:20:52.167Z,99981.13
2023-04-26T00:23:19.619Z,99984.66
2023-04-26T00:25:46.616Z,99986.42
2023-04-26T00:28:13.844Z,99985.89
2023-04-26T00:30:47.111Z,99990.82
2023-04-26T00:33:14.670Z,99995.60
2023-04-26T00:35:42.332Z,100000.73
2023-04-26T00:38:10.120Z,100005.33
2023-04-26T00:40:37.145Z,100006.40
2023-04-26T00:43:05.434Z,100006.21
2023-04-26T00:45:33.857Z,100010.61
2023-04-26T00:48:03.148Z,100006.40
2023-04-26T00:50:30.863Z,100008.52
2023-04-26T00:52:58.014Z,100009.56
2023-04-26T00:55:26.853Z,100011.51
2023-04-26T00:57:54.871Z,100011.50
2023-04-26T01:00:22.436Z,100020.65
2023-04-26T01:02:49.899Z,100019.26
2023-04-26T01:05:17.582Z,100018.20
2023-04-26T01:07:45.721Z,100023.15
2023-04-26T01:10:13.045Z,100024.23
2023-04-26T01:12:41.050Z,100020.54
2023-04-26T01:15:09.846Z,100019.11
2023-04-26T01:17:38.472Z,100019.13
2023-04-26T01:20:09.407Z,100017.54
2023-04-26T01:22:36.512Z,100015.61
2023-04-26T01:25:05.291Z,100016.85
2023-04-26T01:27:33.065Z,100021.09
2023-04-26T01:30:00.418Z,100015.29
2023-04-26T01:32:28.114Z,100010.75
2023-04-26T01:34:57.472Z,100009.88
2023-04-26T01:37:24.727Z,100007.79
2023-04-26T01:39:52.017Z,100006.55
2023-04-26T01:42:20.370Z,100005.85
2023-04-26T01:44:47.713Z,100009.90
2023-04-26T01:47:14.856Z,100002.34
2023-04-26T01:49:41.928Z,100001.46
2023-04-26T01:52:08.950Z,99999.70
2023-04-26T01:54:36.591Z,100004.08
2023-04-26T01:57:03.970Z,100004.96
2023-04-26T01:59:31.445Z,100002.15
2023-04-26T02:01:59.204Z,100003.75
2023-04-26T02:04:27.258Z,100003.58
2023-04-26T02:06:54.920Z,100002.70
2023-04-26T02:09:24.116Z,100002.36
2023-04-26T02:11:51.681Z,100003.23
2023-04-26T02:14:20.003Z,100004.11
2023-04-26T02:16:49.152Z,100000.24
2023-04-26T02:19:16.430Z,100002.35
2023-04-26T02:21:51.502Z,99997.95
2023-04-26T02:24:18.596Z,99997.23
2023-04-26T02:26:46.152Z,100001.11
2023-04-26T02:29:13.373Z,100002.71
2023-04-26T02:31:40.967Z,100007.64
2023-04-26T02:34:08.217Z,100008.15
2023-04-26T02:36:35.571Z,100009.92
2023-04-26T02:39:03.247Z,100013.80
2023-04-26T02:41:33.763Z,100010.96
2023-04-26T02:44:01.315Z,100012.00
2023-04-26T02:46:28.594Z,100010.75
2023-04-26T02:48:55.720Z,100011.61
2023-04-26T02:51:23.651Z,100007.36
2023-04-26T02:53:50.874Z,100004.16
2023-04-26T02:56:19.110Z,100006.96
2023-04-26T02:58:46.775Z,100007.11
2023-04-26T03:01:14.972Z,100009.17
2023-04-26T03:03:42.731Z,100010.73
2023-04-26T03:06:10.175Z,100008.44
2023-04-26T03:08:37.548Z,100010.56
2023-04-26T03:11:05.150Z,100010.16
2023-04-26T03:13:32.440Z,100010.48
2023-04-26T03:16:01.873Z,100009.02
2023-04-26T03:18:30.117Z,100010.79
2023-04-26T03:20:57.368Z,100015.89
2023-04-26T03:23:25.138Z,100016.29
2023-04-26T03:25:52.902Z,100013.85
2023-04-26T03:28:21.070Z,100012.27
2023-04-26T03:30:49.557Z,100018.44
2023-04-26T03:33:17.149Z,100022.45
2023-04-26T03:35:45.295Z,100019.41
2023-04-26T03:38:12.641Z,100024.04
2023-04-26T03:40:40.632Z,100035.48
2023-04-26T03:43:07.968Z,100033.11
2023-04-26T03:45:36.258Z,100030.92
2023-04-26T03:48:06.024Z,100034.15
2023-04-26T03:50:32.998Z,100034.56
2023-04-26T03:53:01.184Z,100036.95
2023-04-26T03:55:29.041Z,100037.55
2023-04-26T03:57:56.327Z,100040.98
2023-04-26T04:00:24.155Z,100039.84
2023-04-26T04:02:52.584Z,100041.58
2023-04-26T04:05:23.678Z,100038.56
2023-04-26T04:07:51.857Z,100037.96
2023-04-26T04:10:19.203Z,100039.64
2023-04-26T04:12:46.603Z,100042.78
2023-04-26T04:15:32.564Z,100042.89
2023-04-26T04:18:00.996Z,100048.88
2023-04-26T04:20:28.342Z,100043.86
2023-04-26T04:22:58.908Z,100042.20
2023-04-26T04:25:26.680Z,100040.89
2023-04-26T04:27:54.258Z,100037.55
2023-04-26T04:30:21.445Z,100030.50
2023-04-26T04:32:48.657Z,100029.33
2023-04-26T04:35:17.117Z,100025.90
2023-04-26T04:37:44.292Z,100021.19
2023-04-26T04:40:13.960Z,100021.20
2023-04-26T04:42:45.228Z,100016.26
2023-04-26T04:45:12.903Z,100014.28
2023-04-26T04:47:40.299Z,100010.86
2023-04-26T04:50:08.359Z,100015.34
2023-04-26T04:52:35.640Z,100019.82
2023-04-26T04:55:04.058Z,100024.56
2023-04-26T04:57:32.736Z,100024.95
2023-04-26T05:00:03.973Z,100021.05
2023-04-26T05:02:31.957Z,100026.91
2023-04-26T05:05:02.192Z,100027.70
2023-04-26T05:07:29.444Z,100026.75
2023-04-26T05:09:56.746Z,100027.80
2023-04-26T05:12:24.028Z,100026.60
2023-04-26T05:14:51.393Z,100026.73
2023-04-26T05:17:18.940Z,100027.69
2023-04-26T05:19:46.397Z,100028.81
2023-04-26T05:22:18.768Z,100029.98
2023-04-26T05:24:47.766Z,100032.15
2023-04-26T05:27:15.440Z,100032.11
2023-04-26T05:29:54.996Z,100029.19
2023-04-26T05:32:35.793Z,100027.23
2023-04-26T05:35:14.049Z,100030.54
2023-04-26T05:37:41.194Z,100033.83
2023-04-26T05:40:10.301Z,100031.99
2023-04-26T05:42:37.346Z,100034.80
2023-04-26T05:45:05.715Z,100030.86
2023-04-26T05:47:33.329Z,100027.67
2023-04-26T05:50:00.730Z,100026.45
2023-04-26T05:52:28.598Z,100018.70
2023-04-26T05:54:55.653Z,100013.90
2023-04-26T05:57:22.871Z,100013.74
2023-04-26T05:59:50.147Z,100011.98
2023-04-26T06:02:17.711Z,100017.63
2023-04-26T06:04:45.424Z,100012.98
2023-04-26T06:07:14.870Z,100017.98
2023-04-26T06:09:42.025Z,100009.67
2023-04-26T06:12:09.273Z,100014.73
2023-04-26T06:14:39.394Z,100013.29
2023-04-26T06:17:09.969Z,100018.02
2023-04-26T06:19:37.198Z,100016.73
2023-04-26T06:22:04.429Z,100014.73
2023-04-26T06:24:31.578Z,100016.91
2023-04-26T06:26:59.033Z,100019.94
2023-04-26T06:29:26.093Z,100018.47
2023-04-26T06:31:53.614Z,100018.46
2023-04-26T06:34:21.406Z,100016.36
2023-04-26T06:36:48.805Z,100019.53
2023-04-26T06:39:17.551Z,100019.31
2023-04-26T06:41:44.811Z,100020.70
2023-04-26T06:44:12.265Z,100018.66
2023-04-26T06:46:43.063Z,100023.79
2023-04-26T06:49:11.890Z,100027.00
2023-04-26T06:51:39.339Z,100030.11
2023-04-26T06:54:06.527Z,100031.08
2023-04-26T06:56:33.853Z,100034.14
2023-04-26T06:59:05.158Z,100032.23
2023-04-26T07:01:36.194Z,100034.86
2023-04-26T07:04:04.841Z,100033.67
2023-04-26T07:06:32.279Z,100034.46
2023-04-26T07:09:01.333Z,100036.63
2023-04-26T07:11:29.031Z,100035.17
2023-04-26T07:13:57.189Z,100038.01
2023-04-26T07:16:24.632Z,100046.03
2023-04-26T07:18:58.435Z,100051.93
2023-04-26T07:21:27.126Z,100049.49
2023-04-26T07:23:56.227Z,100051.21
2023-04-26T07:26:23.602Z,100049.61
2023-04-26T07:28:52.489Z,100047.02
2023-04-26T07:31:22.825Z,100051.72
2023-04-26T07:33:50.109Z,100055.00
2023-04-26T07:36:17.284Z,100048.38
2023-04-26T07:38:44.881Z,100054.04
2023-04-26T07:41:13.274Z,100058.53
2023-04-26T07:43:40.642Z,100058.70
2023-04-26T07:46:08.066Z,100055.73
2023-04-26T07:48:35.432Z,100056.24
2023-04-26T07:51:10.111Z,100058.60
2023-04-26T07:53:38.918Z,100062.19
2023-04-26T07:56:08.061Z,100063.64
2023-04-26T07:58:36.633Z,100059.38
2023-04-26T08:01:04.414Z,100062.20
2023-04-26T08:03:31.815Z,100057.36
2023-04-26T08:06:00.091Z,100056.54
2023-04-26T08:08:28.043Z,100059.34
2023-04-26T08:10:56.098Z,100055.00
2023-04-26T08:13:23.507Z,100053.64
2023-04-26T08:15:50.870Z,100049.65
2023-04-26T08:18:18.120Z,100049.79
2023-04-26T08:20:45.376Z,100049.51
2023-04-26T08:23:13.141Z,100049.71
2023-04-26T08:25:40.225Z,100047.88
2023-04-26T08:28:08.865Z,100050.48
2023-04-26T08:30:36.255Z,100046.88
2023-04-26T08:33:03.745Z,100046.39
2023-04-26T08:35:31.025Z,100043.78
2023-04-26T08:37:58.125Z,100044.56
2023-04-26T08:40:25.445Z,100038.48
2023-04-26T08:42:54.221Z,100042.15
2023-04-26T08:45:21.581Z,100037.45
2023-04-26T08:47:53.858Z,100037.94
2023-04-26T08:50:22.379Z,100028.05
2023-04-26T08:52:51.628Z,100026.41
2023-04-26T08:55:20.397Z,100021.05
2023-04-26T08:57:49.020Z,100017.98
2023-04-26T09:00:19.949Z,100021.61
2023-04-26T09:02:50.152Z,100016.65
2023-04-26T09:05:17.732Z,100012.79
2023-04-26T09:07:47.232Z,100015.54
2023-04-26T09:10:21.691Z,100017.50
2023-04-26T09:12:55.649Z,100010.58
2023-04-26T09:15:23.457Z,100007.23
2023-04-26T09:17:52.252Z,100006.19
2023-04-26T09:20:28.090Z,100008.08
2023-04-26T09:23:06.684Z,100002.98
2023-04-26T09:25:34.139Z,99999.54
2023-04-26T09:28:01.902Z,99995.37
2023-04-26T09:30:29.462Z,99999.85
2023-04-26T09:33:07.154Z,100000.69
2023-04-26T09:35:35.337Z,100001.05
2023-04-26T09:38:13.991Z,99997.77
2023-04-26T09:40:46.788Z,99994.65
2023-04-26T09:43:19.665Z,99994.35
2023-04-26T09:45:55.760Z,99999.88
2023-04-26T09:48:31.004Z,99995.45
2023-04-26T09:51:09.444Z,99990.29
2023-04-26T09:53:42.100Z,99990.77
2023-04-26T09:56:15.500Z,99979.85
2023-04-26T09:59:00.888Z,99979.01
2023-04-26T10:01:31.611Z,99989.27
2023-04-26T10:04:01.898Z,99986.52
2023-04-26T10:06:29.598Z,99980.19
2023-04-26T10:08:58.175Z,99984.27
2023-04-26T10:11:25.641Z,99981.00
2023-04-26T10:13:52.815Z,99982.19
2023-04-26T10:16:21.566Z,99986.73
2023-04-26T10:18:49.788Z,99986.21
2023-04-26T10:21:23.301Z,99983.05
2023-04-26T10:23:50.532Z,99979.58
2023-04-26T10:26:47.795Z,99978.89
2023-04-26T10:29:15.105Z,99982.75
2023-04-26T10:32:02.151Z,99980.80
2023-04-26T10:34:33.359Z,99974.89
2023-04-26T10:37:11.898Z,99972.77
2023-04-26T10:39:40.145Z,99982.88
2023-04-26T10:42:27.716Z,99980.34
2023-04-26T10:44:56.682Z,99983.38
2023-04-26T10:47:24.882Z,99982.45
2023-04-26T10:49:52.780Z,99984.23
2023-04-26T10:52:21.301Z,99988.88
2023-04-26T10:54:55.975Z,99982.52
2023-04-26T10:57:24.823Z,99984.48
2023-04-26T11:00:11.221Z,99980.38
2023-04-26T11:02:53.661Z,99981.83
2023-04-26T11:05:39.073Z,99985.48
2023-04-26T11:08:08.060Z,99980.52
2023-04-26T11:10:38.016Z,99983.38
2023-04-26T11:13:05.181Z,99979.21
2023-04-26T11:15:32.548Z,99979.52
2023-04-26T11:18:03.033Z,99977.29
2023-04-26T11:20:33.542Z,99979.16
2023-04-26T11:23:01.247Z,99978.92
2023-04-26T11:25:29.175Z,99978.73
2023-04-26T11:28:02.810Z,99980.48
2023-04-26T11:30:31.897Z,99979.27
2023-04-26T11:33:04.326Z,99983.73
2023-04-26T11:35:35.404Z,99980.57
2023-04-26T11:38:04.804Z,99979.44
2023-04-26T11:40:32.419Z,99979.80
2023-04-26T11:43:04.469Z,99981.46
2023-04-26T11:45:32.594Z,99986.11
2023-04-26T11:48:01.123Z,99983.11
2023-04-26T11:50:28.337Z,99976.58
2023-04-26T11:52:56.324Z,99975.98
2023-04-26T11:55:31.901Z,99974.34
2023-04-26T11:57:59.719Z,99974.65
2023-04-26T12:00:26.991Z,99973.57
2023-04-26T12:02:54.649Z,99966.39
2023-04-26T12:05:32.280Z,99966.66
2023-04-26T12:08:00.191Z,99963.00
2023-04-26T12:10:29.224Z,99964.34
2023-04-26T12:12:57.085Z,99966.54
2023-04-26T12:15:25.376Z,99964.45
2023-04-26T12:17:55.974Z,99955.45
2023-04-26T12:20:34.936Z,99960.30
2023-04-26T12:23:06.450Z,99960.60
2023-04-26T12:25:34.463Z,99959.16
2023-04-26T12:28:03.067Z,99963.48
2023-04-26T12:30:30.391Z,99963.03
2023-04-26T12:33:15.512Z,99963.84
2023-04-26T12:35:44.551Z,99964.90
2023-04-26T12:38:12.597Z,99964.94
2023-04-26T12:40:39.809Z,99966.73
2023-04-26T12:43:06.907Z,99965.60
2023-04-26T12:45:34.209Z,99966.08
2023-04-26T12:48:02.814Z,99964.98
2023-04-26T12:50:30.091Z,99963.52
2023-04-26T12:52:57.744Z,99961.80
2023-04-26T12:55:25.247Z,99958.98
2023-04-26T12:57:52.379Z,99956.73
2023-04-26T13:00:19.937Z,99958.97
2023-04-26T13:02:47.332Z,99956.80
2023-04-26T13:05:14.643Z,99957.74
2023-04-26T13:07:42.659Z,99951.19
2023-04-26T13:10:12.918Z,99954.29
2023-04-26T13:12:40.437Z,99956.17
2023-04-26T13:15:08.204Z,99952.42
2023-04-26T13:17:36.074Z,99956.05
2023-04-26T13:20:04.671Z,99950.42
2023-04-26T13:22:31.775Z,99951.15
2023-04-26T13:24:58.970Z,99944.30
2023-04-26T13:27:29.186Z,99947.30
2023-04-26T13:29:58.624Z,99948.10
2023-04-26T13:32:25.959Z,99952.48
2023-04-26T13:34:55.158Z,99954.94
2023-04-26T13:37:23.457Z,99950.79
2023-04-26T13:39:50.650Z,99949.42
2023-04-26T13:42:18.004Z,99948.23
2023-04-26T13:44:45.232Z,99945.67
2023-04-26T13:47:12.328Z,99944.84
2023-04-26T13:49:41.907Z,99947.52
2023-04-26T13:52:09.345Z,99944.98
2023-04-26T13:54:37.168Z,99942.61
2023-04-26T13:57:04.536Z,99942.08
2023-04-26T13:59:31.963Z,99934.92
2023-04-26T14:01:59.447Z,99936.34
2023-04-26T14:04:27.434Z,99933.84
2023-04-26T14:06:54.765Z,99935.66
2023-04-26T14:09:22.138Z,99930.83
2023-04-26T14:11:57.091Z,99929.75
2023-04-26T14:14:31.179Z,99930.13
2023-04-26T14:16:58.422Z,99929.36
2023-04-26T14:19:26.398Z,99932.36
2023-04-26T14:21:55.486Z,99930.02
2023-04-26T14:24:22.550Z,99927.13
2023-04-26T14:26:49.642Z,99925.52
2023-04-26T14:29:16.800Z,99929.46
2023-04-26T14:31:44.191Z,99924.48
2023-04-26T14:34:11.302Z,99924.55
2023-04-26T14:36:38.400Z,99922.98
2023-04-26T14:39:05.838Z,99919.52
2023-04-26T14:41:32.932Z,99918.09
2023-04-26T14:44:00.022Z,99920.17
2023-04-26T14:46:27.604Z,99916.24
2023-04-26T14:48:56.949Z,99913.31
2023-04-26T14:51:24.530Z,99917.49
2023-04-26T14:53:51.917Z,99911.80
2023-04-26T14:56:19.057Z,99913.79
2023-04-26T14:58:46.628Z,99912.05
2023-04-26T15:01:14.432Z,99909.60
2023-04-26T15:03:41.672Z,99912.89
2023-04-26T15:06:12.297Z,99915.30
2023-04-26T15:08:39.684Z,99913.09
2023-04-26T15:11:07.187Z,99910.70
2023-04-26T15:13:36.128Z,99909.53
2023-04-26T15:16:07.966Z,99910.16
2023-04-26T15:18:35.970Z,99909.15
2023-04-26T15:21:03.974Z,99911.52
2023-04-26T15:23:31.454Z,99910.16
2023-04-26T15:26:03.289Z,99911.48
2023-04-26T15:28:31.211Z,99909.41
2023-04-26T15:31:07.060Z,99912.29
2023-04-26T15:33:35.217Z,99912.77
2023-04-26T15:36:03.045Z,99916.11
2023-04-26T15:38:31.782Z,99916.92
2023-04-26T15:40:58.976Z,99922.57
2023-04-26T15:43:26.058Z,99921.80
2023-04-26T15:45:53.391Z,99923.70
2023-04-26T15:48:21.172Z,99927.27
2023-04-26T15:50:48.302Z,99924.58
2023-04-26T15:53:16.356Z,99921.70
2023-04-26T15:55:43.952Z,99925.11
2023-04-26T15:58:11.455Z,99924.31
2023-04-26T16:00:38.954Z,99925.10
2023-04-26T16:03:07.796Z,99921.04
2023-04-26T16:05:36.429Z,99924.09
2023-04-26T16:08:04.034Z,99925.02
2023-04-26T16:10:31.561Z,99925.33
2023-04-26T16:12:59.048Z,99927.27
2023-04-26T16:15:27.131Z,99929.75
2023-04-26T16:17:54.599Z,99932.63
2023-04-26T16:20:21.891Z,99932.54
2023-04-26T16:22:50.123Z,99932.62
2023-04-26T16:25:17.468Z,99939.52
2023-04-26T16:27:44.832Z,99939.31
2023-04-26T16:30:12.785Z,99940.83
2023-04-26T16:32:40.454Z,99942.60
2023-04-26T16:35:09.001Z,99937.29
2023-04-26T16:37:39.580Z,99940.98
2023-04-26T16:40:07.984Z,99939.84
2023-04-26T16:42:35.441Z,99939.48
2023-04-26T16:45:03.840Z,99938.59
2023-04-26T16:47:31.766Z,99941.29
2023-04-26T16:49:59.727Z,99945.46
2023-04-26T16:52:26.918Z,99942.14
2023-04-26T16:54:54.554Z,99951.59
2023-04-26T16:57:22.304Z,99951.01
2023-04-26T16:59:50.384Z,99952.52
2023-04-26T17:02:18.073Z,99954.37
2023-04-26T17:04:46.614Z,99950.72
2023-04-26T17:07:14.220Z,99948.49
2023-04-26T17:09:41.986Z,99946.98
2023-04-26T17:12:11.035Z,99943.88
2023-04-26T17:14:39.996Z,99945.05
2023-04-26T17:17:07.652Z,99946.19
2023-04-26T17:19:34.980Z,99947.89
2023-04-26T17:22:03.299Z,99951.04
2023-04-26T17:24:31.399Z,99946.89
2023-04-26T17:26:58.827Z,99948.40
2023-04-26T17:29:27.588Z,99949.22
2023-04-26T17:31:57.918Z,99947.84
2023-04-26T17:34:26.633Z,99948.77
2023-04-26T17:36:54.374Z,99953.81
2023-04-26T17:39:22.315Z,99952.27
2023-04-26T17:41:51.565Z,99952.48
2023-04-26T17:44:20.431Z,99952.87
2023-04-26T17:46:48.950Z,99949.92
2023-04-26T17:49:17.527Z,99951.94
2023-04-26T17:51:45.848Z,99949.11
2023-04-26T17:54:14.267Z,99950.73
2023-04-26T17:56:43.693Z,99950.06
2023-04-26T17:59:13.894Z,99949.39
2023-04-26T18:01:44.225Z,99952.47
2023-04-26T18:04:15.321Z,99947.73
2023-04-26T18:06:49.264Z,99946.20
2023-04-26T18:09:19.560Z,99947.15
2023-04-26T18:11:54.436Z,99952.41
2023-04-26T18:14:26.420Z,99951.66
2023-04-26T18:16:58.349Z,99951.60
2023-04-26T18:19:30.268Z,99958.14
2023-04-26T18:22:00.762Z,99958.65
2023-04-26T18:24:34.206Z,99960.38
2023-04-26T18:27:17.191Z,99956.77
2023-04-26T18:29:50.270Z,99953.88
2023-04-26T18:32:26.918Z,99955.59
2023-04-26T18:34:58.265Z,99953.38
2023-04-26T18:37:28.800Z,99955.76
2023-04-26T18:40:02.268Z,99956.89
2023-04-26T18:42:32.693Z,99959.82
2023-04-26T18:45:04.650Z,99962.38
2023-04-26T18:47:37.310Z,99966.20
2023-04-26T18:50:08.452Z,99966.11
2023-04-26T18:52:40.266Z,99959.80
2023-04-26T18:55:10.224Z,99964.82
2023-04-26T18:57:40.215Z,99965.59
2023-04-26T19:00:10.189Z,99964.95
2023-04-26T19:10:35.633Z,99958.20
2023-04-26T19:13:03.299Z,99955.30
2023-04-26T19:15:31.085Z,99958.92
2023-04-26T19:17:58.441Z,99955.46
2023-04-26T19:20:26.788Z,99962.45
2023-04-26T19:22:55.041Z,99961.67
2023-04-26T19:25:23.011Z,99962.66
2023-04-26T19:27:50.465Z,99962.70
2023-04-26T19:30:17.848Z,99962.04
2023-04-26T19:32:46.140Z,99962.61
2023-04-26T19:35:13.170Z,99961.23
2023-04-26T19:37:40.667Z,99961.64
2023-04-26T19:40:09.774Z,99957.41
2023-04-26T19:42:37.076Z,99956.22
2023-04-26T19:45:05.900Z,99957.34
2023-04-26T19:47:33.969Z,99956.17
2023-04-26T19:50:02.026Z,99955.71
2023-04-26T19:52:29.466Z,99952.45
2023-04-26T19:54:56.683Z,99950.78
2023-04-26T19:57:23.890Z,99953.40
2023-04-26T19:59:51.278Z,99952.96
2023-04-26T20:02:19.061Z,99954.72
2023-04-26T20:04:46.545Z,99951.65
2023-04-26T20:07:13.700Z,99947.02
2023-04-26T20:09:41.255Z,99945.56
2023-04-26T20:12:08.914Z,99939.79
2023-04-26T20:14:37.395Z,99941.09
2023-04-26T20:17:05.524Z,99941.52
2023-04-26T20:19:33.228Z,99941.05
2023-04-26T20:22:00.648Z,99936.02
2023-04-26T20:24:28.045Z,99935.27
2023-04-26T20:26:56.123Z,99927.95
2023-04-26T20:29:24.281Z,99930.91
2023-04-26T20:31:51.446Z,99923.71
2023-04-26T20:34:18.892Z,99925.73
2023-04-26T20:36:46.148Z,99926.33
2023-04-26T20:39:13.701Z,99927.61
2023-04-26T20:41:41.176Z,99926.48
2023-04-26T20:44:09.850Z,99924.98
2023-04-26T20:46:37.654Z,99927.86
2023-04-26T20:49:06.289Z,99932.19
2023-04-26T20:51:33.871Z,99942.45
2023-04-26T20:54:01.043Z,99946.88
2023-04-26T20:56:28.772Z,99949.95
2023-04-26T20:58:57.258Z,99958.33
2023-04-26T21:01:24.738Z,99958.67
2023-04-26T21:03:52.144Z,99957.45
2023-04-26T21:06:19.541Z,99957.13
2023-04-26T21:08:46.778Z,99957.34
2023-04-26T21:11:14.038Z,99962.30
2023-04-26T21:13:41.688Z,99962.48
2023-04-26T21:16:08.969Z,99964.06
2023-04-26T21:18:36.915Z,99963.77
2023-04-26T21:21:04.880Z,99959.86
2023-04-26T21:23:33.049Z,99957.55
2023-04-26T21:26:00.205Z,99958.91
2023-04-26T21:28:27.560Z,99958.39
2023-04-26T21:31:05.799Z,99959.64
2023-04-26T21:33:33.341Z,99952.55
2023-04-26T21:36:00.858Z,99949.02
2023-04-26T21:38:29.480Z,99948.02
2023-04-26T21:40:56.878Z,99949.13
2023-04-26T21:43:24.789Z,99947.73
2023-04-26T21:45:56.044Z,99938.48
2023-04-26T21:48:24.114Z,99941.05
2023-04-26T21:50:51.362Z,99933.89
2023-04-26T21:53:18.726Z,99935.23
2023-04-26T21:55:53.043Z,99937.84
2023-04-26T21:58:21.516Z,99933.03
2023-04-26T22:00:50.164Z,99935.36
2023-04-26T22:03:18.156Z,99936.29
2023-04-26T22:05:45.928Z,99936.00
2023-04-26T22:08:14.008Z,99931.30
2023-04-26T22:10:41.559Z,99928.75
2023-04-26T22:13:09.036Z,99927.19
2023-04-26T22:15:36.268Z,99926.48
2023-04-26T22:18:04.352Z,99923.47
2023-04-26T22:20:32.030Z,99920.92
2023-04-26T22:22:59.362Z,99921.73
2023-04-26T22:25:26.824Z,99919.18
2023-04-26T22:27:54.101Z,99921.08
2023-04-26T22:30:26.003Z,99916.79
2023-04-26T22:32:57.465Z,99915.86
2023-04-26T22:35:25.964Z,99914.80
2023-04-26T22:37:54.680Z,99922.14
2023-04-26T22:40:21.903Z,99927.50
2023-04-26T22:42:49.263Z,99922.10
2023-04-26T22:45:17.115Z,99917.17
2023-04-26T22:47:44.395Z,99915.94
2023-04-26T22:50:12.043Z,99917.30
2023-04-26T22:52:39.385Z,99915.86
2023-04-26T22:55:07.716Z,99915.54
2023-04-26T22:57:34.927Z,99916.66
2023-04-26T23:00:04.016Z,99911.86
2023-04-26T23:02:32.236Z,99910.27
2023-04-26T23:05:01.227Z,99904.80
2023-04-26T23:07:28.950Z,99905.16
2023-04-26T23:09:56.480Z,99897.20
2023-04-26T23:12:24.476Z,99895.20
2023-04-26T23:14:51.820Z,99894.09
2023-04-26T23:17:19.926Z,99896.84
2023-04-26T23:19:47.149Z,99893.51
2023-04-26T23:22:15.342Z,99891.23
2023-04-26T23:24:42.682Z,99891.97
2023-04-26T23:27:10.133Z,99887.60
2023-04-26T23:29:37.798Z,99888.36
2023-04-26T23:32:05.363Z,99887.32
2023-04-26T23:34:33.118Z,99891.02
2023-04-26T23:37:07.177Z,99894.37
2023-04-26T23:39:35.857Z,99891.89
2023-04-26T23:42:04.058Z,99891.88
2023-04-26T23:44:31.542Z,99893.14
2023-04-26T23:46:59.003Z,99890.91
2023-04-26T23:49:26.464Z,99894.20
2023-04-26T23:51:54.136Z,99891.95
2023-04-26T23:54:21.375Z,99893.02
2023-04-26T23:56:48.834Z,99898.73
2023-04-26T23:59:17.006Z,99892.22
